»·PEaware :: SKY74 KHII-KPSP

SKY74 :: KHII-KPSP

FLIGHT INFORMATION

Flight Status: Arrived
Operator:
Sky High Charters
More flights by this operator :: More flights under this callsign
Pilot: Charles C. (26995)
Aircraft: MCDONNELL-DOUGLAS SKYTRAIN C-47
(DC3)
More flights by this aircraft type
Origin: KHII Lake Havasu City
United States
Destination: KPSP Palm Springs Intl
United States
More flights between these airports :: More routes between these airports
Route: EED CLOWD1
File this flight plan on PilotEdge
Remarks:
Altitude:
(Current/Filed)
8,000ft
Speed:
(Current/Filed)
150kts
Departed: 30-Aug-20 10:33 AM
Arrived: 30-Aug-20 11:38 AM
Distance/Time
Traveled:
116nm/1:05
Distance/Time
To Go:
Arrived

Flight Plot

Page will automatically refresh every two minutes.

Flight plan parsing failed; only flown route is shown


Map Options




Map Legend


Flown Route
Filed Route
Departure Airport
Arrival Airport
Navaid (VOR, NDB)
Fix

Horizontal Profiles

Position Reports

Time Latitude Longitude Heading Altitude Ground
Speed
30-Aug-20 10:21 34.568945 -114.360614 45 736ft 0kts
30-Aug-20 10:23 34.568945 -114.360614 45 736ft 0kts
30-Aug-20 10:24 34.568945 -114.360614 45 736ft 0kts
30-Aug-20 10:25 34.568945 -114.360614 45 736ft 0kts
30-Aug-20 10:26 34.568966 -114.360587 45 736ft 0kts
30-Aug-20 10:27 34.568966 -114.360587 45 736ft 0kts
30-Aug-20 10:28 34.569620 -114.359688 46 743ft 12kts
30-Aug-20 10:29 34.573270 -114.361134 330 755ft 23kts
30-Aug-20 10:30 34.578460 -114.364910 327 750ft 9kts
30-Aug-20 10:31 34.580036 -114.365875 22 753ft 0kts
30-Aug-20 10:32 34.580036 -114.365875 22 753ft 0kts
30-Aug-20 10:33 34.579144 -114.363969 150 759ft 44kts
30-Aug-20 10:34 34.555423 -114.346308 148 1301ft 111kts
30-Aug-20 10:35 34.536321 -114.360833 288 1983ft 118kts
30-Aug-20 10:36 34.560734 -114.390518 309 2662ft 119kts
30-Aug-20 10:37 34.585506 -114.419532 318 3211ft 127kts
30-Aug-20 10:37 34.606177 -114.444795 309 3721ft 124kts
30-Aug-20 10:39 34.638041 -114.475440 1 4397ft 125kts
30-Aug-20 10:40 34.674472 -114.472001 7 4821ft 135kts
30-Aug-20 10:41 34.709611 -114.468140 344 5390ft 128kts
30-Aug-20 10:41 34.738851 -114.472869 350 5933ft 127kts
30-Aug-20 10:43 34.762505 -114.498096 225 6592ft 115kts
30-Aug-20 10:44 34.738075 -114.522969 223 7233ft 115kts
30-Aug-20 10:44 34.720119 -114.546741 227 7758ft 114kts
30-Aug-20 10:45 34.698335 -114.578331 227 7992ft 139kts
30-Aug-20 10:46 34.671777 -114.618151 230 7983ft 159kts
30-Aug-20 10:47 34.643569 -114.660830 228 7966ft 169kts
30-Aug-20 10:48 34.614566 -114.704585 231 8064ft 164kts
30-Aug-20 10:49 34.586607 -114.746852 231 8063ft 160kts
30-Aug-20 10:50 34.558462 -114.789291 230 7983ft 162kts
30-Aug-20 10:51 34.530327 -114.831678 230 7978ft 161kts
30-Aug-20 10:52 34.502221 -114.873940 230 7980ft 160kts
30-Aug-20 10:53 34.474352 -114.915803 230 7982ft 159kts
30-Aug-20 10:54 34.446507 -114.957608 230 7982ft 159kts
30-Aug-20 10:55 34.418744 -114.999220 231 7980ft 159kts
30-Aug-20 10:56 34.390933 -115.040869 230 7985ft 159kts
30-Aug-20 10:57 34.362936 -115.082726 230 7981ft 159kts
30-Aug-20 10:58 34.335048 -115.124384 230 7986ft 159kts
30-Aug-20 10:59 34.307099 -115.166067 231 7982ft 159kts
30-Aug-20 11:00 34.279107 -115.207801 230 7985ft 159kts
30-Aug-20 11:01 34.251264 -115.249223 230 8008ft 158kts
30-Aug-20 11:02 34.223626 -115.290323 231 8027ft 157kts
30-Aug-20 11:03 34.195971 -115.331368 231 8045ft 156kts
30-Aug-20 11:04 34.168049 -115.372826 231 8069ft 161kts
30-Aug-20 11:05 34.139100 -115.415717 231 7993ft 167kts
30-Aug-20 11:06 34.109891 -115.458925 231 8009ft 165kts
30-Aug-20 11:07 34.080442 -115.502454 231 8010ft 168kts
30-Aug-20 11:08 34.050728 -115.546313 231 7981ft 170kts
30-Aug-20 11:09 34.020689 -115.590598 231 7947ft 171kts
30-Aug-20 11:10 33.990416 -115.635179 230 7912ft 171kts
30-Aug-20 11:11 33.960140 -115.679689 230 7877ft 171kts
30-Aug-20 11:12 33.929858 -115.724125 231 7843ft 172kts
30-Aug-20 11:13 33.915253 -115.776223 266 7828ft 169kts
30-Aug-20 11:14 33.911638 -115.832351 267 7828ft 166kts
30-Aug-20 11:15 33.908179 -115.887079 266 7827ft 162kts
30-Aug-20 11:16 33.901535 -115.939286 227 7820ft 160kts
30-Aug-20 11:17 33.865224 -115.971655 219 7828ft 160kts
30-Aug-20 11:18 33.828484 -116.001901 217 7826ft 160kts
30-Aug-20 11:19 33.789362 -116.014695 137 7826ft 176kts
30-Aug-20 11:20 33.753933 -115.980550 200 7811ft 159kts
30-Aug-20 11:21 33.750079 -116.026037 308 7802ft 167kts
30-Aug-20 11:22 33.776965 -116.069315 297 7818ft 163kts
30-Aug-20 11:23 33.801134 -116.115455 286 7798ft 158kts
30-Aug-20 11:24 33.769945 -116.147090 206 6716ft 179kts
30-Aug-20 11:25 33.723431 -116.172625 207 5500ft 187kts
30-Aug-20 11:26 33.689462 -116.208203 259 4895ft 161kts
30-Aug-20 11:27 33.683318 -116.262657 265 4053ft 163kts
30-Aug-20 11:28 33.678523 -116.313697 265 3825ft 140kts
30-Aug-20 11:29 33.674504 -116.356738 267 3833ft 118kts
30-Aug-20 11:30 33.691403 -116.381579 322 3654ft 96kts
30-Aug-20 11:31 33.714400 -116.403541 325 3177ft 116kts
30-Aug-20 11:32 33.741731 -116.427426 325 2417ft 120kts
30-Aug-20 11:33 33.765934 -116.449579 324 1861ft 107kts
30-Aug-20 11:34 33.788257 -116.472210 327 1252ft 99kts
30-Aug-20 11:35 33.809830 -116.490505 329 745ft 89kts
30-Aug-20 11:36 33.827290 -116.505511 316 422ft 41kts
30-Aug-20 11:37 33.827951 -116.508237 137 427ft 7kts
30-Aug-20 11:38 33.824838 -116.507262 191 419ft 0kts
30-Aug-20 11:39 33.822302 -116.505487 202 413ft 19kts
30-Aug-20 11:40 33.821809 -116.508176 1 415ft 8kts
30-Aug-20 11:41 33.821959 -116.508148 57 415ft 0kts
30-Aug-20 11:42 33.821959 -116.508148 57 415ft 0kts
30-Aug-20 11:43 33.821959 -116.508148 57 415ft 0kts
30-Aug-20 11:44 33.821959 -116.508148 57 415ft 0kts
30-Aug-20 11:45 33.821959 -116.508148 57 415ft 0kts
30-Aug-20 11:46 33.821959 -116.508148 57 415ft 0kts
30-Aug-20 11:47 33.821959 -116.508148 57 415ft 0kts
30-Aug-20 11:48 33.821959 -116.508148 57 415ft 0kts
30-Aug-20 11:49 33.821959 -116.508148 57 415ft 0kts
30-Aug-20 11:50 33.821959 -116.508148 57 415ft 0kts
30-Aug-20 11:51 33.821959 -116.508148 57 415ft 0kts

Navigation Log

Ident Type
Flight plan parsing failed, navigation log unavailable